Time;durP1;ratioP1;P1;durP2;ratioP2;P2;SDS_P1;SDS_P2;PMS_P1;PMS_P2;Temp;Humidity;BMP_temperature;BMP_pressure;BME280_temperature;BME280_humidity;BME280_pressure;Samples;Min_cycle;Max_cycle;Signal;HPM_P1;HPM_P2
2021/04/08 00:01:16;;;;;;;3.97;2.92;;;;;;;-139.48;100.00;61774.03;5056709;28;20051;-65
2021/04/08 00:04:01;;;;;;;7.97;2.53;;;;;;;-139.48;100.00;61774.03;5056613;28;20043;-66
2021/04/08 00:06:45;;;;;;;7.18;2.90;;;;;;;-139.48;100.00;61774.03;5056555;28;20099;-66
2021/04/08 00:09:29;;;;;;;4.78;2.70;;;;;;;-139.48;100.00;61774.03;5041619;28;20087;-66
2021/04/08 00:12:13;;;;;;;6.22;2.55;;;;;;;-139.48;100.00;61774.03;5056480;28;20047;-66
2021/04/08 00:14:57;;;;;;;2.70;2.30;;;;;;;-139.48;100.00;61774.03;5041343;28;20044;-66
2021/04/08 00:17:42;;;;;;;4.13;2.25;;;;;;;-139.48;100.00;61774.03;5041043;28;20052;-67
2021/04/08 00:20:26;;;;;;;5.20;2.22;;;;;;;-139.48;100.00;61774.03;5041489;28;20178;-66
2021/04/08 00:23:11;;;;;;;4.70;2.60;;;;;;;-139.48;100.00;61774.03;5041446;28;20110;-67
2021/04/08 00:25:55;;;;;;;3.75;2.38;;;;;;;-139.48;100.00;61774.03;5041348;28;20078;-66
2021/04/08 00:28:39;;;;;;;5.03;2.70;;;;;;;-139.48;100.00;61774.03;5041313;28;20067;-66
2021/04/08 00:31:23;;;;;;;5.88;2.17;;;;;;;-139.48;100.00;61774.03;5027125;28;20055;-67
2021/04/08 00:34:07;;;;;;;5.82;2.25;;;;;;;-139.48;100.00;61774.03;5056382;28;20051;-67
2021/04/08 00:36:51;;;;;;;4.60;2.25;;;;;;;-139.48;100.00;61774.03;5027467;28;20102;-67
2021/04/08 00:39:34;;;;;;;5.30;2.42;;;;;;;-139.48;100.00;61774.03;5040779;28;20452;-66
2021/04/08 00:42:19;;;;;;;4.88;2.47;;;;;;;-139.48;100.00;61774.03;5056256;28;20051;-66
2021/04/08 00:45:04;;;;;;;5.45;2.67;;;;;;;-139.48;100.00;61774.03;5040731;28;20074;-67
2021/04/08 00:47:48;;;;;;;3.05;2.20;;;;;;;-139.48;100.00;61774.03;5055767;28;20047;-67
2021/04/08 00:50:32;;;;;;;5.40;2.45;;;;;;;-139.48;100.00;61774.03;5041213;28;20448;-67
2021/04/08 00:53:19;;;;;;;3.63;2.20;;;;;;;-139.48;100.00;61774.03;5056027;28;20051;-66
2021/04/08 00:56:03;;;;;;;3.78;2.38;;;;;;;-139.48;100.00;61774.03;5040545;28;20143;-66
2021/04/08 00:58:48;;;;;;;5.80;2.50;;;;;;;-139.48;100.00;61774.03;5040527;28;20044;-66
2021/04/08 01:01:32;;;;;;;3.38;2.10;;;;;;;-139.48;100.00;61774.03;5040445;28;20076;-67
2021/04/08 01:04:16;;;;;;;5.28;2.72;;;;;;;-139.48;100.00;61774.03;5040390;28;20140;-66
2021/04/08 01:07:00;;;;;;;6.75;3.25;;;;;;;-139.48;100.00;61774.03;5039873;28;20064;-66
2021/04/08 01:09:43;;;;;;;6.47;2.40;;;;;;;-139.48;100.00;61774.03;5040622;28;20110;-66
2021/04/08 01:12:27;;;;;;;2.95;2.00;;;;;;;-139.48;100.00;61774.03;5040542;28;20555;-66
2021/04/08 01:15:12;;;;;;;9.65;2.80;;;;;;;-139.48;100.00;61774.03;5055630;28;20079;-66
2021/04/08 01:18:02;;;;;;;;;;;;;;;-139.48;100.00;61774.03;5040355;28;20056;-67
2021/04/08 01:20:52;;;;;;;3.15;2.13;;;;;;;-139.48;100.00;61774.03;5054241;28;19986;-67
2021/04/08 01:24:10;;;;;;;4.13;2.00;;;;;;;-139.48;100.00;61774.03;5055164;28;20075;-65
2021/04/08 01:27:13;;;;;;;6.45;2.85;;;;;;;-139.48;100.00;61774.03;5055079;28;20182;-67
2021/04/08 01:30:27;;;;;;;4.50;2.60;;;;;;;-139.48;100.00;61774.03;5055346;28;20048;-66
2021/04/08 01:33:16;;;;;;;4.82;2.80;;;;;;;-139.48;100.00;61774.03;5054250;28;20124;-66
2021/04/08 01:36:10;;;;;;;7.57;2.95;;;;;;;-139.48;100.00;61774.03;5039856;28;20044;-66
2021/04/08 01:38:59;;;;;;;7.67;2.40;;;;;;;-139.48;100.00;61774.03;5040153;28;20052;-65
2021/04/08 01:41:46;;;;;;;3.35;2.30;;;;;;;-139.48;100.00;61774.03;5039694;28;20627;-67
2021/04/08 01:44:30;;;;;;;4.65;2.20;;;;;;;-139.48;100.00;61774.03;5026188;28;20047;-67
2021/04/08 01:47:15;;;;;;;2.90;1.95;;;;;;;-139.48;100.00;61774.03;5039902;28;20401;-66
2021/04/08 01:50:00;;;;;;;3.45;2.60;;;;;;;-139.48;100.00;61774.03;5039896;28;20106;-67
2021/04/08 01:52:46;;;;;;;2.80;2.13;;;;;;;-139.48;100.00;61774.03;5039578;28;20089;-66
2021/04/08 01:55:32;;;;;;;5.47;2.45;;;;;;;-139.48;100.00;61774.03;5025486;28;20040;-66
2021/04/08 01:58:17;;;;;;;3.75;2.95;;;;;;;-139.48;100.00;61774.03;5039334;28;20098;-66
2021/04/08 02:01:01;;;;;;;4.43;2.20;;;;;;;-139.48;100.00;61774.03;5039722;28;20050;-67
2021/04/08 02:03:49;;;;;;;3.58;2.60;;;;;;;-139.48;100.00;61774.03;5039608;28;20098;-66
2021/04/08 02:06:33;;;;;;;4.28;2.13;;;;;;;-139.48;100.00;61774.03;5039450;28;20067;-66
2021/04/08 02:09:17;;;;;;;4.60;2.53;;;;;;;-139.48;100.00;61774.03;5039226;28;20055;-66
2021/04/08 02:12:01;;;;;;;5.82;2.50;;;;;;;-139.48;100.00;61774.03;5039154;28;20509;-67
2021/04/08 02:14:47;;;;;;;7.03;2.78;;;;;;;-139.48;100.00;61774.03;5039377;28;20151;-66
2021/04/08 02:17:33;;;;;;;3.03;2.30;;;;;;;-139.48;100.00;61774.03;5024921;28;20405;-67
2021/04/08 02:20:19;;;;;;;5.55;1.90;;;;;;;-139.48;100.00;61774.03;5039044;28;20080;-67
2021/04/08 02:23:04;;;;;;;5.13;2.13;;;;;;;-139.48;100.00;61774.03;5039307;28;20094;-66
2021/04/08 02:25:50;;;;;;;3.35;2.00;;;;;;;-139.48;100.00;61774.03;5024985;28;20130;-67
2021/04/08 02:28:35;;;;;;;6.43;2.70;;;;;;;-139.48;100.00;61774.03;5054182;28;20101;-66
2021/04/08 02:31:19;;;;;;;5.50;2.38;;;;;;;-139.48;100.00;61774.03;5024966;28;20047;-66
2021/04/08 02:34:10;;;;;;;6.88;2.40;;;;;;;-139.48;100.00;61774.03;5054069;28;20066;-67
2021/04/08 02:36:54;;;;;;;5.28;2.58;;;;;;;-139.48;100.00;61774.03;5038961;28;20075;-67
2021/04/08 02:39:37;;;;;;;5.45;2.88;;;;;;;-139.48;100.00;61774.03;5053659;28;20412;-66
2021/04/08 02:42:21;;;;;;;5.18;2.65;;;;;;;-139.48;100.00;61774.03;5038880;28;20051;-67
2021/04/08 02:45:07;;;;;;;4.28;2.40;;;;;;;-139.48;100.00;61774.03;5053602;28;20418;-67
2021/04/08 02:47:51;;;;;;;7.07;2.83;;;;;;;-139.48;100.00;61774.03;5038761;28;20098;-66
2021/04/08 02:50:36;;;;;;;3.45;2.85;;;;;;;-139.48;100.00;61774.03;5024513;28;20429;-67
2021/04/08 02:53:31;;;;;;;8.95;2.97;;;;;;;-139.48;100.00;61774.03;5038799;28;20051;-66
2021/04/08 02:56:19;;;;;;;2.67;2.00;;;;;;;-139.48;100.00;61774.03;5052702;28;20067;-66
2021/04/08 02:59:08;;;;;;;4.25;2.10;;;;;;;-139.48;100.00;61774.03;5052351;28;20056;-66
2021/04/08 03:02:05;;;;;;;5.38;2.63;;;;;;;-139.48;100.00;61774.03;5038280;28;20105;-66
2021/04/08 03:04:53;;;;;;;9.15;2.90;;;;;;;-139.48;100.00;61774.03;5038121;28;20055;-66
2021/04/08 03:07:39;;;;;;;5.60;2.20;;;;;;;-139.48;100.00;61774.03;5038375;28;20056;-67
2021/04/08 03:10:23;;;;;;;4.35;2.63;;;;;;;-139.48;100.00;61774.03;5038472;28;20051;-67
2021/04/08 03:13:10;;;;;;;3.42;2.85;;;;;;;-139.48;100.00;61774.03;5038367;28;20095;-67
2021/04/08 03:15:54;;;;;;;6.70;3.97;;;;;;;-139.48;100.00;61774.03;5038630;28;20098;-66
2021/04/08 03:18:40;;;;;;;6.20;3.17;;;;;;;-139.48;100.00;61774.03;5025467;28;20418;-68
2021/04/08 03:21:25;;;;;;;8.65;3.83;;;;;;;-139.48;100.00;61774.03;5024313;28;20559;-68
2021/04/08 03:24:10;;;;;;;3.22;2.17;;;;;;;-139.48;100.00;61774.03;5038239;28;20101;-68
2021/04/08 03:26:55;;;;;;;4.45;2.47;;;;;;;-139.48;100.00;61774.03;5038196;28;20083;-69
2021/04/08 03:29:40;;;;;;;4.10;2.88;;;;;;;-139.48;100.00;61774.03;5037765;28;20056;-69
2021/04/08 03:32:25;;;;;;;5.43;3.08;;;;;;;-139.48;100.00;61774.03;5038026;28;20102;-67
2021/04/08 03:35:11;;;;;;;5.22;3.13;;;;;;;-139.48;100.00;61774.03;5038341;28;20090;-68
2021/04/08 03:37:55;;;;;;;5.32;3.45;;;;;;;-139.48;100.00;61774.03;5038014;28;20417;-69
2021/04/08 03:40:39;;;;;;;8.18;3.85;;;;;;;-139.48;100.00;61774.03;5024192;28;20098;-69
2021/04/08 03:43:23;;;;;;;5.05;2.67;;;;;;;-139.48;100.00;61774.03;5038160;28;20048;-69
2021/04/08 03:46:08;;;;;;;7.68;4.00;;;;;;;-139.48;100.00;61774.03;5038172;28;20044;-68
2021/04/08 03:48:53;;;;;;;6.95;3.35;;;;;;;-139.48;100.00;61774.03;5037813;28;20082;-69
2021/04/08 03:51:37;;;;;;;6.32;3.83;;;;;;;-139.48;100.00;61774.03;5038003;28;20114;-69
2021/04/08 03:54:22;;;;;;;7.15;3.97;;;;;;;-139.48;100.00;61774.03;5037708;28;20044;-69
2021/04/08 03:57:10;;;;;;;9.27;4.32;;;;;;;-139.48;100.00;61774.03;5052975;28;20048;-68
2021/04/08 03:59:55;;;;;;;4.85;3.50;;;;;;;-139.48;100.00;61774.03;5024052;28;20043;-69
2021/04/08 04:02:40;;;;;;;6.78;2.90;;;;;;;-139.48;100.00;61774.03;5024130;28;20048;-69
2021/04/08 04:05:25;;;;;;;3.45;2.40;;;;;;;-139.48;100.00;61774.03;5023859;28;20095;-69
2021/04/08 04:08:10;;;;;;;6.05;3.05;;;;;;;-139.48;100.00;61774.03;5037682;28;20099;-69
2021/04/08 04:10:54;;;;;;;4.70;3.13;;;;;;;-139.48;100.00;61774.03;5037592;28;20124;-68
2021/04/08 04:13:39;;;;;;;6.93;3.58;;;;;;;-139.48;100.00;61774.03;5037559;28;20055;-68
2021/04/08 04:16:24;;;;;;;7.10;3.80;;;;;;;-139.48;100.00;61774.03;5037715;28;20044;-69
2021/04/08 04:19:08;;;;;;;8.52;3.65;;;;;;;-139.48;100.00;61774.03;5023520;28;20118;-68
2021/04/08 04:21:53;;;;;;;4.32;3.00;;;;;;;-139.48;100.00;61774.03;5037580;28;20048;-68
2021/04/08 04:24:40;;;;;;;5.28;3.53;;;;;;;-139.48;100.00;61774.03;5037498;28;20043;-69
2021/04/08 04:27:24;;;;;;;4.65;3.17;;;;;;;-139.48;100.00;61774.03;5037626;28;20044;-69
2021/04/08 04:30:09;;;;;;;5.47;3.58;;;;;;;-139.48;100.00;61774.03;5037524;28;20095;-68
2021/04/08 04:32:54;;;;;;;4.85;3.17;;;;;;;-139.48;100.00;61774.03;5037722;28;20110;-68
2021/04/08 04:35:38;;;;;;;6.88;3.92;;;;;;;-139.48;100.00;61774.03;5037659;28;20171;-69
2021/04/08 04:38:22;;;;;;;5.55;3.50;;;;;;;-139.48;100.00;61774.03;5037611;28;20052;-68
2021/04/08 04:41:06;;;;;;;6.85;4.10;;;;;;;-139.48;100.00;61774.03;5039368;28;20479;-69
2021/04/08 04:43:49;;;;;;;4.93;3.58;;;;;;;-139.48;100.00;61774.03;5056223;28;20464;-68
2021/04/08 04:46:35;;;;;;;5.43;3.63;;;;;;;-139.48;100.00;61774.03;5041035;28;20134;-68
2021/04/08 04:49:19;;;;;;;4.30;3.08;;;;;;;-139.48;100.00;61774.03;5040613;28;20052;-69
2021/04/08 04:52:04;;;;;;;10.88;3.72;;;;;;;-139.48;100.00;61774.03;5055783;28;20102;-69
2021/04/08 04:54:56;;;;;;;6.53;3.50;;;;;;;-139.48;100.00;61774.03;5056040;28;20106;-69
2021/04/08 04:57:40;;;;;;;6.65;3.95;;;;;;;-139.48;100.00;61774.03;5027749;28;20052;-66
2021/04/08 05:00:24;;;;;;;6.07;4.03;;;;;;;-139.48;100.00;61774.03;5026497;28;20532;-67
2021/04/08 05:03:07;;;;;;;7.35;4.57;;;;;;;-139.48;100.00;61774.03;5055595;28;20075;-66
2021/04/08 05:05:52;;;;;;;6.93;4.50;;;;;;;-139.48;100.00;61774.03;5026584;28;20044;-66
2021/04/08 05:08:39;;;;;;;8.25;4.13;;;;;;;-139.48;100.00;61774.03;5055427;28;20051;-67
2021/04/08 05:11:23;;;;;;;6.35;3.88;;;;;;;-139.48;100.00;61774.03;5040873;28;20052;-66
2021/04/08 05:14:06;;;;;;;6.28;3.53;;;;;;;-139.48;100.00;61774.03;5040531;28;20044;-67
2021/04/08 05:16:50;;;;;;;9.18;4.50;;;;;;;-139.48;100.00;61774.03;5040472;28;20417;-66
2021/04/08 05:19:34;;;;;;;10.15;5.10;;;;;;;-139.48;100.00;61774.03;5039979;28;20414;-67
2021/04/08 05:22:18;;;;;;;8.18;4.22;;;;;;;-139.48;100.00;61774.03;5055710;28;20056;-67
2021/04/08 05:25:03;;;;;;;11.70;4.28;;;;;;;-139.48;100.00;61774.03;5039974;28;20095;-67
2021/04/08 05:27:47;;;;;;;6.97;3.85;;;;;;;-139.48;100.00;61774.03;5040175;28;20052;-66
2021/04/08 05:30:30;;;;;;;13.05;5.25;;;;;;;-139.48;100.00;61774.03;5026220;28;20067;-67
2021/04/08 05:33:14;;;;;;;7.38;5.07;;;;;;;-139.48;100.00;61774.03;5040235;28;20087;-66
2021/04/08 05:35:58;;;;;;;10.80;4.43;;;;;;;-139.48;100.00;61774.03;5039884;28;20128;-66
2021/04/08 05:38:42;;;;;;;5.25;3.72;;;;;;;-139.48;100.00;61774.03;5039836;28;20051;-66
2021/04/08 05:41:26;;;;;;;7.05;5.13;;;;;;;-139.48;100.00;61774.03;5055190;28;20115;-66
2021/04/08 05:44:10;;;;;;;9.70;4.80;;;;;;;-139.48;100.00;61774.03;5054816;28;20143;-66
2021/04/08 05:46:54;;;;;;;8.48;5.25;;;;;;;-139.48;100.00;61774.03;5039834;28;20130;-66
2021/04/08 05:49:38;;;;;;;7.13;4.95;;;;;;;-139.48;100.00;61774.03;5039466;28;20102;-66
2021/04/08 05:52:21;;;;;;;8.32;5.47;;;;;;;-139.48;100.00;61774.03;5054413;28;20425;-66
2021/04/08 05:55:06;;;;;;;10.13;4.82;;;;;;;-139.48;100.00;61774.03;5054850;28;20047;-66
2021/04/08 05:57:50;;;;;;;10.38;4.97;;;;;;;-139.48;100.00;61774.03;5039492;28;20067;-66
2021/04/08 06:00:34;;;;;;;9.70;5.15;;;;;;;-139.48;100.00;61774.03;5039379;28;20047;-67
2021/04/08 06:03:18;;;;;;;9.65;5.55;;;;;;;-139.48;100.00;61774.03;5054718;28;20417;-66
2021/04/08 06:06:04;;;;;;;11.25;5.50;;;;;;;-139.48;100.00;61774.03;5039512;28;20048;-67
2021/04/08 06:08:48;;;;;;;7.97;5.20;;;;;;;-139.48;100.00;61774.03;5039505;28;20199;-67
2021/04/08 06:11:32;;;;;;;9.95;5.85;;;;;;;-139.48;100.00;61774.03;5054383;28;20468;-67
2021/04/08 06:14:16;;;;;;;10.75;5.80;;;;;;;-139.48;100.00;61774.03;5054460;28;20050;-67
2021/04/08 06:17:00;;;;;;;17.27;6.10;;;;;;;-139.48;100.00;61774.03;5039513;28;20048;-67
2021/04/08 06:19:44;;;;;;;7.95;5.53;;;;;;;-139.48;100.00;61774.03;5039034;28;20048;-66
2021/04/08 06:22:28;;;;;;;9.73;5.70;;;;;;;-139.48;100.00;61774.03;5039192;28;20048;-67
2021/04/08 06:25:12;;;;;;;8.85;5.38;;;;;;;-139.48;100.00;61774.03;5054195;28;20047;-67
2021/04/08 06:27:56;;;;;;;11.93;6.22;;;;;;;-139.48;100.00;61774.03;5038784;28;20533;-67
2021/04/08 06:30:44;;;;;;;14.57;6.10;;;;;;;-139.48;100.00;61774.03;5039046;28;20056;-66
2021/04/08 06:33:28;;;;;;;12.18;5.82;;;;;;;-139.48;100.00;61774.03;5054166;28;20505;-67
2021/04/08 06:36:12;;;;;;;9.13;6.55;;;;;;;-139.48;100.00;61774.03;5038917;28;20040;-67
2021/04/08 06:38:56;;;;;;;8.32;5.82;;;;;;;-139.48;100.00;61774.03;5053732;28;20106;-67
2021/04/08 06:41:40;;;;;;;8.40;6.13;;;;;;;-139.48;100.00;61774.03;5053728;28;20051;-67
2021/04/08 06:44:27;;;;;;;14.82;6.38;;;;;;;-139.48;100.00;61774.03;5038596;28;20409;-67
2021/04/08 06:47:11;;;;;;;11.88;6.20;;;;;;;-139.48;100.00;61774.03;5038815;28;20052;-67
2021/04/08 06:49:59;;;;;;;10.63;6.85;;;;;;;-139.48;100.00;61774.03;5053893;28;20047;-67
2021/04/08 06:52:43;;;;;;;10.70;6.53;;;;;;;-139.48;100.00;61774.03;5038378;28;20556;-67
2021/04/08 06:55:27;;;;;;;9.18;6.03;;;;;;;-139.48;100.00;61774.03;5038599;28;20496;-67
2021/04/08 06:58:11;;;;;;;10.38;6.28;;;;;;;-139.48;100.00;61774.03;5024756;28;20044;-67
2021/04/08 07:00:55;;;;;;;10.13;6.88;;;;;;;-139.48;100.00;61774.03;5024320;28;20095;-67
2021/04/08 07:03:39;;;;;;;10.55;6.60;;;;;;;-139.48;100.00;61774.03;5037858;28;20115;-67
2021/04/08 07:06:23;;;;;;;9.57;6.38;;;;;;;-139.48;100.00;61774.03;5024477;28;20055;-67
2021/04/08 07:09:09;;;;;;;11.43;7.00;;;;;;;-139.48;100.00;61774.03;5053216;28;20102;-67
2021/04/08 07:11:53;;;;;;;12.38;6.25;;;;;;;-139.48;100.00;61774.03;5024449;28;20048;-66
2021/04/08 07:14:37;;;;;;;14.38;7.10;;;;;;;-139.48;100.00;61774.03;5024127;28;20540;-67
2021/04/08 07:17:22;;;;;;;9.15;6.55;;;;;;;-139.48;100.00;61774.03;5038093;28;20402;-67
2021/04/08 07:20:06;;;;;;;9.77;6.50;;;;;;;-139.48;100.00;61774.03;5053403;28;20067;-65
2021/04/08 07:23:09;;;;;;;12.00;7.07;;;;;;;-139.48;100.00;61774.03;5024333;28;20104;-66
2021/04/08 07:26:08;;;;;;;20.30;8.52;;;;;;;-139.48;100.00;61774.03;5038139;28;20051;-66
2021/04/08 07:28:51;;;;;;;10.88;7.28;;;;;;;-139.48;100.00;61774.03;5053061;28;20048;-67
2021/04/08 07:31:35;;;;;;;13.90;7.18;;;;;;;-139.48;100.00;61774.03;5038244;28;20109;-66
2021/04/08 07:34:34;;;;;;;10.85;7.75;;;;;;;-139.48;100.00;61774.03;5038117;28;20051;-67
2021/04/08 07:37:23;;;;;;;14.88;7.63;;;;;;;-139.48;100.00;61774.03;5053154;28;20094;-67
2021/04/08 07:40:14;;;;;;;14.77;7.43;;;;;;;-139.48;100.00;61774.03;5038038;28;20183;-67
2021/04/08 07:43:13;;;;;;;11.48;7.35;;;;;;;-139.48;100.00;61774.03;5038104;28;20048;-67
2021/04/08 07:45:58;;;;;;;10.23;6.45;;;;;;;-139.48;100.00;61774.03;5037813;28;20064;-66
2021/04/08 07:48:43;;;;;;;14.07;7.65;;;;;;;-139.48;100.00;61774.03;5052914;28;20052;-67
2021/04/08 07:51:32;;;;;;;12.90;6.45;;;;;;;-139.48;100.00;61774.03;5037911;28;20131;-66
2021/04/08 07:54:18;;;;;;;13.75;6.90;;;;;;;-139.48;100.00;61774.03;5052792;28;20106;-66
2021/04/08 07:57:04;;;;;;;12.05;7.18;;;;;;;-139.48;100.00;61774.03;5053087;28;20048;-66
2021/04/08 07:59:49;;;;;;;11.32;6.13;;;;;;;-139.48;100.00;61774.03;5037634;28;20179;-67
2021/04/08 08:02:38;;;;;;;13.55;6.45;;;;;;;-139.48;100.00;61774.03;5037696;28;20179;-66
2021/04/08 08:05:28;;;;;;;10.25;5.80;;;;;;;-139.48;100.00;61774.03;5037740;28;20077;-67
2021/04/08 08:08:22;;;;;;;12.05;6.53;;;;;;;-139.48;100.00;61774.03;5037503;28;20409;-67
2021/04/08 08:11:11;;;;;;;11.85;5.68;;;;;;;-139.48;100.00;61774.03;5052553;28;20056;-67
2021/04/08 08:13:56;;;;;;;9.32;6.18;;;;;;;-139.48;100.00;61774.03;5037879;28;20090;-67
2021/04/08 08:16:39;;;;;;;8.60;5.97;;;;;;;-139.48;100.00;61774.03;5041339;28;20044;-67
2021/04/08 08:19:23;;;;;;;8.18;5.93;;;;;;;-139.48;100.00;61774.03;5056243;28;20516;-67
2021/04/08 08:22:08;;;;;;;11.80;5.93;;;;;;;-139.48;100.00;61774.03;5056628;28;20600;-67
2021/04/08 08:24:54;;;;;;;7.05;5.50;;;;;;;-139.48;100.00;61774.03;5027179;28;20513;-66
2021/04/08 08:27:43;;;;;;;7.82;5.28;;;;;;;-139.48;100.00;61774.03;5056157;28;20090;-67
2021/04/08 08:30:32;;;;;;;9.93;4.90;;;;;;;-139.48;100.00;61774.03;5056343;28;20401;-67
2021/04/08 08:33:18;;;;;;;7.38;4.25;;;;;;;-139.48;100.00;61774.03;5056375;28;20075;-66
2021/04/08 08:36:02;;;;;;;8.05;4.57;;;;;;;-139.48;100.00;61774.03;5041552;28;20410;-67
2021/04/08 08:38:46;;;;;;;;;;;;;;;-139.48;100.00;61774.03;5027406;28;20055;-67
2021/04/08 08:41:30;;;;;;;9.77;4.80;;;;;;;-139.48;100.00;61774.03;5055053;28;20404;-67
2021/04/08 08:44:15;;;;;;;9.27;5.35;;;;;;;-139.48;100.00;61774.03;5041067;28;20402;-67
2021/04/08 08:47:14;;;;;;;9.45;4.45;;;;;;;-139.48;100.00;61774.03;5040902;28;20170;-66
2021/04/08 08:50:00;;;;;;;6.63;4.63;;;;;;;-139.48;100.00;61774.03;5054712;28;20470;-67
2021/04/08 08:52:48;;;;;;;8.13;4.85;;;;;;;-139.48;100.00;61774.03;5056029;28;20107;-66
2021/04/08 08:55:33;;;;;;;7.75;4.93;;;;;;;-139.48;100.00;61774.03;5040972;28;20047;-67
2021/04/08 08:58:17;;;;;;;9.27;4.97;;;;;;;-139.48;100.00;61774.03;5040493;28;20138;-67
2021/04/08 09:01:01;;;;;;;6.70;4.57;;;;;;;-139.48;100.00;61774.03;5041090;28;20133;-66
2021/04/08 09:03:45;;;;;;;7.55;4.90;;;;;;;-139.48;100.00;61774.03;5056073;28;20044;-66
2021/04/08 09:06:29;;;;;;;14.38;5.32;;;;;;;-139.48;100.00;61774.03;5040661;28;20083;-66
2021/04/08 09:09:14;;;;;;;;;;;;;;;-139.48;100.00;61774.03;5026911;28;20102;-66
2021/04/08 09:12:03;;;;;;;9.00;4.57;;;;;;;-139.48;100.00;61774.03;5054556;28;19943;-66
2021/04/08 09:14:48;;;;;;;8.60;4.70;;;;;;;-139.48;100.00;61774.03;5040236;28;20124;-65
2021/04/08 09:17:45;;;;;;;8.65;4.13;;;;;;;-139.48;100.00;61774.03;5040083;28;20504;-65
2021/04/08 09:20:29;;;;;;;5.68;4.10;;;;;;;-139.48;100.00;61774.03;5055155;28;20516;-65
2021/04/08 09:23:17;;;;;;;7.60;4.70;;;;;;;-139.48;100.00;61774.03;5026633;28;20111;-66
2021/04/08 09:26:02;;;;;;;7.45;4.38;;;;;;;-139.48;100.00;61774.03;5054237;28;20098;-66
2021/04/08 09:28:46;;;;;;;7.25;3.83;;;;;;;-139.48;100.00;61774.03;5055328;28;20421;-65
2021/04/08 09:31:31;;;;;;;6.78;3.85;;;;;;;-139.48;100.00;61774.03;5040235;28;20405;-65
2021/04/08 09:34:15;;;;;;;8.45;4.35;;;;;;;-139.48;100.00;61774.03;5040144;28;20047;-66
2021/04/08 09:36:59;;;;;;;8.15;5.50;;;;;;;-139.48;100.00;61774.03;5025851;28;20079;-66
2021/04/08 09:39:43;;;;;;;6.07;3.97;;;;;;;-139.48;100.00;61774.03;5039797;28;20051;-66
2021/04/08 09:42:28;;;;;;;10.65;4.15;;;;;;;-139.48;100.00;61774.03;5039864;28;20060;-66
2021/04/08 09:45:13;;;;;;;6.78;4.38;;;;;;;-139.48;100.00;61774.03;5039926;28;20114;-66
2021/04/08 09:48:10;;;;;;;7.88;4.55;;;;;;;-139.48;100.00;61774.03;5039732;28;20056;-66
2021/04/08 09:50:58;;;;;;;8.35;4.82;;;;;;;-139.48;100.00;61774.03;5039796;28;20048;-66
2021/04/08 09:53:42;;;;;;;8.02;4.70;;;;;;;-139.48;100.00;61774.03;5054627;28;20048;-66
2021/04/08 09:56:41;;;;;;;6.82;4.70;;;;;;;-139.48;100.00;61774.03;5054600;28;20136;-66
2021/04/08 09:59:27;;;;;;;7.07;3.97;;;;;;;-139.48;100.00;61774.03;5054513;28;20051;-65
2021/04/08 10:02:11;;;;;;;11.57;4.97;;;;;;;-139.48;100.00;61774.03;5039758;28;20055;-66
2021/04/08 10:05:10;;;;;;;7.88;4.38;;;;;;;-139.48;100.00;61774.03;5039319;28;20048;-66
2021/04/08 10:07:55;;;;;;;7.90;4.43;;;;;;;-139.48;100.00;61774.03;5039624;28;20474;-66
2021/04/08 10:10:42;;;;;;;12.00;5.15;;;;;;;-139.48;100.00;61774.03;5039613;28;20071;-66
2021/04/08 10:13:29;;;;;;;5.72;3.72;;;;;;;-139.48;100.00;61774.03;5054316;28;20132;-66
2021/04/08 10:16:16;;;;;;;8.20;4.53;;;;;;;-139.48;100.00;61774.03;5025335;28;20044;-65
2021/04/08 10:19:01;;;;;;;7.25;4.07;;;;;;;-139.48;100.00;61774.03;5053926;28;20413;-66
2021/04/08 10:21:45;;;;;;;6.72;4.40;;;;;;;-139.48;100.00;61774.03;5025231;28;20055;-66
2021/04/08 10:24:40;;;;;;;7.32;4.20;;;;;;;-139.48;100.00;61774.03;5038951;28;20055;-65
2021/04/08 10:27:25;;;;;;;6.70;4.30;;;;;;;-139.48;100.00;61774.03;5038780;28;20102;-66
2021/04/08 10:30:17;;;;;;;7.28;4.20;;;;;;;-139.48;100.00;61774.03;5039332;28;20555;-65
2021/04/08 10:33:14;;;;;;;5.60;4.30;;;;;;;-139.48;100.00;61774.03;5039140;28;20047;-65
2021/04/08 10:35:58;;;;;;;8.15;4.10;;;;;;;-139.48;100.00;61774.03;5038982;28;20040;-66
2021/04/08 10:38:42;;;;;;;7.22;3.80;;;;;;;-139.48;100.00;61774.03;5024607;28;20140;-67
2021/04/08 10:41:26;;;;;;;4.72;4.00;;;;;;;-139.48;100.00;61774.03;5054295;28;20504;-66
2021/04/08 10:44:23;;;;;;;6.57;3.40;;;;;;;-139.48;100.00;61774.03;5053935;28;20047;-66
2021/04/08 10:47:07;;;;;;;6.85;4.18;;;;;;;-139.48;100.00;61774.03;5053738;28;20055;-66
2021/04/08 10:49:55;;;;;;;6.13;4.10;;;;;;;-139.48;100.00;61774.03;5053515;28;20048;-66
2021/04/08 10:52:39;;;;;;;9.80;4.82;;;;;;;-139.48;100.00;61774.03;5054047;28;20102;-66
2021/04/08 10:55:24;;;;;;;8.10;5.20;;;;;;;-139.48;100.00;61774.03;5038551;28;20040;-66
2021/04/08 10:58:22;;;;;;;8.10;4.50;;;;;;;-139.48;100.00;61774.03;5053407;28;20079;-67
2021/04/08 11:01:07;;;;;;;7.95;4.40;;;;;;;-139.48;100.00;61774.03;5038551;28;20087;-67
2021/04/08 11:04:04;;;;;;;8.10;4.95;;;;;;;-139.48;100.00;61774.03;5038661;28;20125;-66
2021/04/08 11:06:49;;;;;;;6.95;4.22;;;;;;;-139.48;100.00;61774.03;5038433;28;20487;-67
2021/04/08 11:09:34;;;;;;;7.32;4.38;;;;;;;-139.48;100.00;61774.03;5038604;28;20072;-65
2021/04/08 11:12:18;;;;;;;10.05;4.03;;;;;;;-139.48;100.00;61774.03;5053273;28;20412;-66
2021/04/08 11:15:04;;;;;;;7.97;4.53;;;;;;;-139.48;100.00;61774.03;5052456;28;20060;-67
2021/04/08 11:17:51;;;;;;;5.88;4.40;;;;;;;-139.48;100.00;61774.03;5053235;28;20047;-67
2021/04/08 11:20:38;;;;;;;5.63;4.13;;;;;;;-139.48;100.00;61774.03;5024158;28;20044;-66
2021/04/08 11:23:23;;;;;;;5.72;4.00;;;;;;;-139.48;100.00;61774.03;5024073;28;20048;-66
2021/04/08 11:26:08;;;;;;;9.20;4.88;;;;;;;-139.48;100.00;61774.03;5053278;28;20059;-66
2021/04/08 11:28:54;;;;;;;7.50;4.75;;;;;;;-139.48;100.00;61774.03;5038238;28;20119;-66
2021/04/08 11:31:38;;;;;;;6.45;4.50;;;;;;;-139.48;100.00;61774.03;5053257;28;20063;-66
2021/04/08 11:34:23;;;;;;;11.88;5.38;;;;;;;-139.48;100.00;61774.03;5053333;28;20048;-66
2021/04/08 11:37:07;;;;;;;9.02;5.22;;;;;;;-139.48;100.00;61774.03;5024402;28;20048;-66
2021/04/08 11:39:58;;;;;;;7.20;4.40;;;;;;;-139.48;100.00;61774.03;5052948;28;20052;-66
2021/04/08 11:42:41;;;;;;;7.07;4.40;;;;;;;-139.48;100.00;61774.03;5037716;28;20071;-66
2021/04/08 11:45:28;;;;;;;8.45;4.40;;;;;;;-139.48;100.00;61774.03;5038037;28;20063;-66
2021/04/08 11:48:15;;;;;;;10.18;4.38;;;;;;;-139.48;100.00;61774.03;5037724;28;20051;-66
2021/04/08 11:51:06;;;;;;;9.02;3.75;;;;;;;-139.48;100.00;61774.03;5041789;28;20052;-66
2021/04/08 11:53:51;;;;;;;8.02;4.63;;;;;;;-139.48;100.00;61774.03;5041922;28;20409;-66
2021/04/08 11:56:37;;;;;;;8.65;4.10;;;;;;;-139.48;100.00;61774.03;5056449;28;20067;-66
2021/04/08 11:59:22;;;;;;;8.85;4.93;;;;;;;-139.48;100.00;61774.03;5056578;28;20078;-66
2021/04/08 12:02:06;;;;;;;8.38;4.70;;;;;;;-139.48;100.00;61774.03;5057001;28;20122;-66
2021/04/08 12:04:51;;;;;;;7.05;4.22;;;;;;;-139.48;100.00;61774.03;5041875;28;20047;-66
2021/04/08 12:07:46;;;;;;;7.05;4.45;;;;;;;-139.48;100.00;61774.03;5056470;28;20040;-66
2021/04/08 12:10:35;;;;;;;7.13;3.78;;;;;;;-139.48;100.00;61774.03;5041955;28;20060;-66
2021/04/08 12:13:21;;;;;;;6.20;4.28;;;;;;;-139.48;100.00;61774.03;5056706;28;20099;-66
2021/04/08 12:16:06;;;;;;;5.93;3.85;;;;;;;-139.48;100.00;61774.03;5041736;28;20103;-66
2021/04/08 12:18:52;;;;;;;8.32;4.32;;;;;;;-139.48;100.00;61774.03;5041155;28;20047;-66
2021/04/08 12:21:36;;;;;;;9.02;4.10;;;;;;;-139.48;100.00;61774.03;5056634;28;20071;-66
2021/04/08 12:24:20;;;;;;;8.35;4.70;;;;;;;-139.48;100.00;61774.03;5056309;28;20052;-65
2021/04/08 12:27:24;;;;;;;6.22;4.78;;;;;;;-139.48;100.00;61774.03;5056426;28;20456;-65
2021/04/08 12:30:11;;;;;;;9.65;5.22;;;;;;;-139.48;100.00;61774.03;5056404;28;20051;-67
2021/04/08 12:32:56;;;;;;;8.20;4.93;;;;;;;-139.48;100.00;61774.03;5040985;28;20047;-66
2021/04/08 12:35:40;;;;;;;10.45;5.20;;;;;;;-139.48;100.00;61774.03;5056210;28;20048;-66